createdAt,value
2022-10-19T00:01:01.277Z,12.05
2022-10-19T00:02:06.306Z,12.14
2022-10-19T00:03:10.824Z,12.21
2022-10-19T00:04:13.671Z,12.14
2022-10-19T00:05:16.892Z,12.12
2022-10-19T00:06:26.459Z,12.13
2022-10-19T00:07:29.932Z,12.09
2022-10-19T00:08:32.708Z,12.24
2022-10-19T00:09:35.012Z,12.14
2022-10-19T00:10:44.207Z,12.13
2022-10-19T00:11:49.758Z,12.11
2022-10-19T00:12:55.289Z,11.92
2022-10-19T00:13:59.026Z,11.85
2022-10-19T00:15:02.397Z,11.92
2022-10-19T00:16:11.467Z,11.94
2022-10-19T00:17:15.043Z,11.86
2022-10-19T00:18:18.560Z,11.90
2022-10-19T00:19:29.468Z,11.92
2022-10-19T00:20:32.776Z,11.90
2022-10-19T00:21:35.445Z,11.96
2022-10-19T00:22:39.056Z,11.90
2022-10-19T00:23:41.828Z,11.94
2022-10-19T00:24:45.124Z,11.95
2022-10-19T00:25:58.239Z,11.89
2022-10-19T00:27:01.629Z,11.90
2022-10-19T00:28:06.502Z,11.94
2022-10-19T00:29:11.255Z,11.86
2022-10-19T00:30:13.813Z,11.83
2022-10-19T00:31:18.840Z,11.81
2022-10-19T00:32:21.671Z,11.90
2022-10-19T00:33:24.121Z,11.88
2022-10-19T00:34:28.054Z,11.95
2022-10-19T00:35:31.562Z,11.95
2022-10-19T00:36:39.872Z,11.92
2022-10-19T00:37:43.166Z,11.97
2022-10-19T00:38:47.802Z,11.96
2022-10-19T00:40:54.933Z,11.90
2022-10-19T00:41:58.435Z,11.97
2022-10-19T00:43:02.495Z,12.01
2022-10-19T00:44:07.503Z,11.97
2022-10-19T00:45:18.072Z,11.87
2022-10-19T00:46:21.637Z,11.88
2022-10-19T00:47:27.039Z,11.92
2022-10-19T00:48:35.251Z,11.93
2022-10-19T00:49:40.446Z,11.90
2022-10-19T00:50:44.994Z,11.69
2022-10-19T00:51:49.816Z,11.69
2022-10-19T00:52:53.332Z,11.67
2022-10-19T00:53:57.360Z,11.65
2022-10-19T00:55:01.491Z,11.66
2022-10-19T00:56:08.130Z,11.68
2022-10-19T00:57:11.849Z,11.67
2022-10-19T00:58:15.455Z,11.75
2022-10-19T00:59:20.527Z,11.79
2022-10-19T01:00:25.909Z,11.64
2022-10-19T01:01:30.522Z,11.73
2022-10-19T01:02:33.942Z,11.80
2022-10-19T01:03:37.911Z,11.58
2022-10-19T01:04:43.575Z,11.71
2022-10-19T01:05:47.081Z,11.70
2022-10-19T01:07:56.920Z,11.79
2022-10-19T01:09:00.207Z,11.86
2022-10-19T01:10:04.968Z,11.75
2022-10-19T01:11:27.896Z,11.67
2022-10-19T01:12:36.007Z,11.64
2022-10-19T01:13:57.157Z,11.60
2022-10-19T01:15:18.295Z,11.62
2022-10-19T01:16:27.048Z,11.66
2022-10-19T01:17:44.947Z,11.70
2022-10-19T01:18:52.849Z,11.54
2022-10-19T01:20:14.961Z,11.53
2022-10-19T01:21:32.105Z,11.48
2022-10-19T01:22:53.232Z,11.56
2022-10-19T01:24:01.914Z,11.55
2022-10-19T01:25:25.378Z,11.50
2022-10-19T01:26:30.486Z,11.37
2022-10-19T01:27:39.283Z,11.50
2022-10-19T01:29:00.067Z,11.38
2022-10-19T01:30:08.993Z,11.45
2022-10-19T01:31:14.227Z,11.58
2022-10-19T01:32:19.415Z,11.41
2022-10-19T01:33:24.514Z,11.45
2022-10-19T01:34:36.447Z,11.43
2022-10-19T01:35:41.545Z,11.37
2022-10-19T01:36:46.792Z,11.41
2022-10-19T01:38:02.691Z,11.45
2022-10-19T01:39:13.658Z,11.45
2022-10-19T01:40:22.704Z,11.37
2022-10-19T01:41:36.517Z,11.31
2022-10-19T01:42:56.226Z,11.34
2022-10-19T01:44:01.303Z,11.42
2022-10-19T01:45:12.160Z,11.35
2022-10-19T01:46:19.917Z,11.24
2022-10-19T01:47:29.060Z,11.36
2022-10-19T01:48:35.111Z,11.38
2022-10-19T01:49:45.147Z,11.47
2022-10-19T01:50:53.090Z,11.41
2022-10-19T01:53:02.982Z,11.42
2022-10-19T01:54:09.334Z,11.38
2022-10-19T01:55:14.438Z,11.33
2022-10-19T01:56:19.023Z,11.50
2022-10-19T01:57:25.105Z,11.39
2022-10-19T01:58:30.199Z,11.49
2022-10-19T01:59:34.144Z,11.52
2022-10-19T02:00:39.417Z,11.47
2022-10-19T02:01:44.002Z,11.43
2022-10-19T02:02:51.163Z,11.61
2022-10-19T02:03:54.848Z,11.67
2022-10-19T02:04:58.874Z,11.65
2022-10-19T02:06:02.892Z,11.63
2022-10-19T02:07:07.245Z,11.60
2022-10-19T02:08:16.587Z,11.58
2022-10-19T02:09:20.830Z,11.51
2022-10-19T02:10:25.021Z,11.63
2022-10-19T02:11:29.410Z,11.58
2022-10-19T02:12:34.605Z,11.46
2022-10-19T02:13:39.865Z,11.53
2022-10-19T02:14:47.028Z,11.56
2022-10-19T02:15:52.087Z,11.59
2022-10-19T02:16:57.588Z,11.57
2022-10-19T02:18:05.461Z,11.60
2022-10-19T02:19:10.447Z,11.64
2022-10-19T02:20:14.612Z,11.61
2022-10-19T02:21:19.892Z,11.50
2022-10-19T02:22:23.469Z,11.47
2022-10-19T02:23:28.603Z,11.50
2022-10-19T02:24:32.035Z,11.59
2022-10-19T02:25:35.656Z,11.65
2022-10-19T02:26:39.254Z,11.62
2022-10-19T02:27:42.066Z,11.56
2022-10-19T02:28:46.695Z,11.61
2022-10-19T02:29:49.258Z,11.64
2022-10-19T02:30:52.439Z,11.66
2022-10-19T02:31:55.734Z,11.59
2022-10-19T02:33:00.298Z,11.58
2022-10-19T02:34:03.729Z,11.61
2022-10-19T02:35:07.825Z,11.62
2022-10-19T02:36:11.736Z,11.54
2022-10-19T02:37:14.976Z,11.58
2022-10-19T02:38:20.314Z,11.65
2022-10-19T02:39:26.788Z,11.65
2022-10-19T02:40:32.466Z,11.75
2022-10-19T02:41:40.126Z,11.62
2022-10-19T02:42:48.122Z,11.61
2022-10-19T02:43:54.342Z,11.62
2022-10-19T02:45:00.782Z,11.56
2022-10-19T02:46:07.422Z,11.58
2022-10-19T02:47:14.307Z,11.60
2022-10-19T02:48:22.717Z,11.72
2022-10-19T02:49:25.133Z,11.68
2022-10-19T02:50:28.678Z,11.72
2022-10-19T02:51:36.226Z,11.75
2022-10-19T02:52:41.383Z,11.68
2022-10-19T02:53:44.700Z,11.62
2022-10-19T02:54:47.580Z,11.72
2022-10-19T02:55:54.311Z,11.64
2022-10-19T02:57:00.633Z,11.56
2022-10-19T02:58:04.896Z,11.58
2022-10-19T02:59:08.388Z,11.62
2022-10-19T03:00:11.704Z,11.64
2022-10-19T03:01:15.658Z,11.69
2022-10-19T03:02:20.623Z,11.68
2022-10-19T03:03:23.972Z,11.62
2022-10-19T03:04:26.735Z,11.49
2022-10-19T03:05:32.963Z,11.59
2022-10-19T03:06:36.356Z,11.66
2022-10-19T03:07:40.531Z,11.61
2022-10-19T03:08:44.079Z,11.58
2022-10-19T03:09:46.464Z,11.52
2022-10-19T03:10:50.597Z,11.48
2022-10-19T03:11:55.879Z,11.35
2022-10-19T03:12:59.056Z,11.39
2022-10-19T03:14:04.024Z,11.50
2022-10-19T03:15:08.888Z,11.57
2022-10-19T03:16:12.952Z,11.57
2022-10-19T03:17:17.150Z,11.57
2022-10-19T03:18:20.458Z,11.50
2022-10-19T03:19:23.754Z,11.61
2022-10-19T03:20:26.837Z,11.55
2022-10-19T03:21:30.659Z,11.63
2022-10-19T03:22:33.230Z,11.62
2022-10-19T03:23:37.244Z,11.70
2022-10-19T03:24:40.903Z,11.66
2022-10-19T03:25:43.216Z,11.65
2022-10-19T03:26:46.294Z,11.63
2022-10-19T03:27:49.708Z,11.65
2022-10-19T03:28:53.246Z,11.66
2022-10-19T03:29:56.362Z,11.75
2022-10-19T03:31:00.007Z,11.82
2022-10-19T03:32:04.866Z,11.77
2022-10-19T03:33:09.635Z,11.66
2022-10-19T03:34:12.931Z,11.77
2022-10-19T03:35:15.911Z,11.79
2022-10-19T03:36:22.751Z,11.94
2022-10-19T03:37:26.053Z,11.89
2022-10-19T03:38:31.964Z,11.84
2022-10-19T03:39:37.114Z,11.87
2022-10-19T03:40:42.580Z,11.81
2022-10-19T03:41:46.619Z,11.89
2022-10-19T03:42:48.793Z,11.83
2022-10-19T03:43:53.273Z,11.85
2022-10-19T03:44:56.530Z,11.74
2022-10-19T03:46:00.562Z,11.90
2022-10-19T03:47:02.706Z,11.90
2022-10-19T03:48:07.580Z,11.92
2022-10-19T03:49:11.607Z,12.00
2022-10-19T03:50:16.248Z,11.93
2022-10-19T03:51:21.216Z,11.97
2022-10-19T03:52:26.507Z,12.05
2022-10-19T03:53:32.525Z,11.98
2022-10-19T03:54:35.491Z,12.06
2022-10-19T03:55:38.788Z,12.16
2022-10-19T03:56:43.967Z,11.98
2022-10-19T03:57:48.001Z,11.97
2022-10-19T03:58:52.550Z,12.08
2022-10-19T03:59:56.056Z,12.02
2022-10-19T04:00:59.495Z,12.13
2022-10-19T04:02:03.613Z,12.29
2022-10-19T04:03:07.093Z,12.26
2022-10-19T04:04:13.245Z,12.28
2022-10-19T04:05:16.922Z,12.39
2022-10-19T04:06:22.203Z,12.24
2022-10-19T04:07:25.812Z,12.27
2022-10-19T04:08:28.169Z,12.38
2022-10-19T04:09:31.558Z,12.55
2022-10-19T04:10:35.076Z,12.60
2022-10-19T04:11:40.033Z,12.67
2022-10-19T04:12:43.441Z,12.64
2022-10-19T04:13:49.723Z,12.53
2022-10-19T04:14:57.261Z,12.63
2022-10-19T04:15:59.325Z,12.60
2022-10-19T04:17:03.423Z,12.62
2022-10-19T04:18:07.512Z,12.68
2022-10-19T04:19:11.668Z,12.50
2022-10-19T04:20:15.393Z,12.58
2022-10-19T04:21:23.707Z,12.72
2022-10-19T04:22:27.038Z,12.77
2022-10-19T04:23:33.146Z,12.66
2022-10-19T04:24:35.939Z,12.56
2022-10-19T04:25:39.802Z,12.52
2022-10-19T04:26:46.236Z,12.53
2022-10-19T04:27:49.014Z,12.66
2022-10-19T04:28:51.408Z,12.73
2022-10-19T04:29:54.874Z,12.60
2022-10-19T04:30:58.696Z,12.50
2022-10-19T04:32:02.825Z,12.45
2022-10-19T04:33:05.809Z,12.49
2022-10-19T04:34:09.522Z,12.57
2022-10-19T04:35:12.817Z,12.71
2022-10-19T04:36:16.870Z,12.61
2022-10-19T04:37:22.742Z,12.66
2022-10-19T04:38:28.177Z,12.53
2022-10-19T04:39:30.698Z,12.69
2022-10-19T04:40:34.509Z,12.73
2022-10-19T04:41:38.445Z,12.54
2022-10-19T04:42:42.304Z,12.52
2022-10-19T04:43:46.278Z,12.52
2022-10-19T04:44:49.585Z,12.58
2022-10-19T04:45:52.776Z,12.60
2022-10-19T04:46:58.397Z,12.58
2022-10-19T04:48:01.875Z,12.55
2022-10-19T04:49:05.915Z,12.53
2022-10-19T04:50:09.929Z,12.55
2022-10-19T04:51:13.419Z,12.57
2022-10-19T04:52:19.750Z,12.61
2022-10-19T04:53:26.382Z,12.56
2022-10-19T04:54:29.787Z,12.58
2022-10-19T04:55:32.470Z,12.67
2022-10-19T04:56:35.544Z,12.73
2022-10-19T04:57:39.165Z,12.86
2022-10-19T04:58:44.054Z,12.80
2022-10-19T04:59:47.985Z,12.73
2022-10-19T05:00:51.896Z,12.69
2022-10-19T05:01:55.168Z,12.84
2022-10-19T05:03:00.006Z,12.85
2022-10-19T05:04:03.747Z,12.83
2022-10-19T05:05:08.530Z,12.74
2022-10-19T05:06:13.471Z,12.67
2022-10-19T05:07:16.733Z,12.72
2022-10-19T05:08:20.169Z,12.82
2022-10-19T05:09:23.453Z,12.89
2022-10-19T05:10:29.476Z,12.93
2022-10-19T05:11:33.085Z,12.97
2022-10-19T05:12:37.742Z,12.93
2022-10-19T05:13:41.766Z,12.97
2022-10-19T05:14:48.767Z,13.09
2022-10-19T05:15:53.305Z,13.06
2022-10-19T05:16:57.502Z,13.10
2022-10-19T05:18:01.112Z,13.14
2022-10-19T05:19:04.346Z,13.16
2022-10-19T05:20:09.690Z,13.25
2022-10-19T05:21:16.016Z,13.34
2022-10-19T05:22:19.135Z,13.41
2022-10-19T05:23:25.465Z,13.41
2022-10-19T05:24:29.173Z,13.37
2022-10-19T05:25:33.887Z,13.34
2022-10-19T05:26:36.765Z,13.27
2022-10-19T05:27:40.282Z,13.30
2022-10-19T05:28:44.338Z,13.35
2022-10-19T05:29:47.186Z,13.41
2022-10-19T05:30:50.799Z,13.26
2022-10-19T05:31:54.615Z,13.17
2022-10-19T05:32:58.960Z,13.24
2022-10-19T05:34:05.294Z,13.28
2022-10-19T05:35:08.361Z,13.14
2022-10-19T05:36:13.334Z,12.95
2022-10-19T05:37:15.994Z,12.87
2022-10-19T05:38:19.322Z,12.95
2022-10-19T05:39:21.656Z,12.94
2022-10-19T05:40:25.162Z,12.97
2022-10-19T05:41:29.920Z,12.95
2022-10-19T05:42:32.510Z,12.96
2022-10-19T05:43:36.436Z,13.02
2022-10-19T05:44:39.798Z,13.05
2022-10-19T05:45:42.989Z,13.07
2022-10-19T05:46:45.772Z,13.13
2022-10-19T05:47:49.173Z,13.17
2022-10-19T05:48:52.263Z,13.13
2022-10-19T05:49:55.441Z,13.10
2022-10-19T05:51:02.377Z,13.14
2022-10-19T05:52:04.863Z,13.12
2022-10-19T05:53:08.605Z,13.21
2022-10-19T05:54:15.266Z,13.26
2022-10-19T05:55:18.617Z,13.33
2022-10-19T05:56:23.271Z,13.35
2022-10-19T05:57:25.533Z,13.39
2022-10-19T05:58:29.028Z,13.24
2022-10-19T05:59:32.428Z,13.03
2022-10-19T06:00:35.774Z,13.14
2022-10-19T06:01:41.216Z,13.24
2022-10-19T06:02:43.976Z,13.25
2022-10-19T06:03:49.267Z,13.08
2022-10-19T06:04:52.762Z,12.98
2022-10-19T06:05:56.374Z,13.07
2022-10-19T06:07:02.639Z,13.16
2022-10-19T06:08:06.724Z,13.24
2022-10-19T06:09:10.381Z,13.19
2022-10-19T06:10:14.997Z,13.40
2022-10-19T06:11:26.128Z,13.50
2022-10-19T06:12:29.450Z,13.65
2022-10-19T06:13:33.554Z,13.63
2022-10-19T06:14:37.176Z,13.60
2022-10-19T06:15:40.974Z,13.60
2022-10-19T06:16:46.516Z,13.41
2022-10-19T06:17:49.353Z,13.43
2022-10-19T06:18:54.973Z,13.53
2022-10-19T06:19:59.601Z,13.49
2022-10-19T06:21:08.430Z,13.47
2022-10-19T06:22:12.772Z,13.53
2022-10-19T06:23:19.262Z,13.47
2022-10-19T06:24:21.997Z,13.50
2022-10-19T06:25:25.374Z,13.63
2022-10-19T06:26:32.565Z,13.80
2022-10-19T06:27:36.287Z,13.63
2022-10-19T06:28:40.799Z,13.54
2022-10-19T06:29:44.408Z,13.57
2022-10-19T06:30:47.942Z,13.55
2022-10-19T06:31:51.616Z,13.70
2022-10-19T06:32:54.608Z,13.73
2022-10-19T06:34:00.419Z,13.75
2022-10-19T06:35:04.220Z,13.86
2022-10-19T06:36:11.602Z,13.81
2022-10-19T06:37:14.666Z,13.77
2022-10-19T06:38:19.340Z,13.66
2022-10-19T06:39:21.895Z,13.63
2022-10-19T06:40:26.184Z,13.81
2022-10-19T06:41:32.409Z,13.81
2022-10-19T06:42:42.970Z,13.82
2022-10-19T06:43:50.652Z,13.99
2022-10-19T06:44:54.367Z,13.83
2022-10-19T06:45:57.587Z,13.70
2022-10-19T06:47:02.943Z,13.93
2022-10-19T06:48:10.579Z,13.95
2022-10-19T06:49:14.703Z,13.91
2022-10-19T06:50:21.709Z,13.96
2022-10-19T06:51:28.347Z,13.83
2022-10-19T06:52:32.812Z,13.90
2022-10-19T06:53:36.822Z,13.90
2022-10-19T06:54:40.221Z,14.06
2022-10-19T06:55:43.297Z,14.31
2022-10-19T06:56:46.972Z,14.49
2022-10-19T06:57:51.187Z,14.36
2022-10-19T06:58:57.970Z,14.36
2022-10-19T07:00:01.611Z,14.39
2022-10-19T07:01:12.598Z,14.35
2022-10-19T07:02:14.875Z,14.43
2022-10-19T07:03:18.810Z,14.47
2022-10-19T07:04:22.210Z,14.38
2022-10-19T07:05:24.985Z,14.02
2022-10-19T07:06:30.870Z,14.07
2022-10-19T07:07:34.392Z,14.06
2022-10-19T07:08:40.820Z,14.29
2022-10-19T07:09:44.215Z,14.30
2022-10-19T07:10:52.561Z,14.28
2022-10-19T07:11:55.519Z,14.34
2022-10-19T07:12:59.055Z,14.22
2022-10-19T07:14:02.110Z,14.14
2022-10-19T07:15:04.979Z,14.07
2022-10-19T07:16:15.888Z,14.05
2022-10-19T07:17:16.446Z,13.91
2022-10-19T07:18:18.835Z,13.89
2022-10-19T07:19:22.512Z,14.05
2022-10-19T07:20:26.396Z,14.22
2022-10-19T07:21:29.043Z,14.41
2022-10-19T07:22:34.327Z,14.10
2022-10-19T07:23:41.492Z,14.26
2022-10-19T07:24:46.080Z,14.15
2022-10-19T07:25:59.352Z,14.13
2022-10-19T07:27:02.658Z,14.15
2022-10-19T07:28:07.758Z,14.13
2022-10-19T07:29:12.174Z,13.94
2022-10-19T07:30:18.604Z,13.86
2022-10-19T07:31:23.778Z,13.94
2022-10-19T07:32:29.885Z,14.03
2022-10-19T07:33:33.192Z,14.24
2022-10-19T07:34:35.436Z,14.19
2022-10-19T07:35:38.846Z,14.14
2022-10-19T07:36:45.901Z,14.04
2022-10-19T07:37:49.395Z,14.03
2022-10-19T07:38:52.064Z,14.21
2022-10-19T07:39:56.091Z,14.23
2022-10-19T07:41:01.613Z,14.34
2022-10-19T07:42:05.933Z,14.41
2022-10-19T07:43:09.948Z,14.46
2022-10-19T07:44:15.894Z,14.71
2022-10-19T07:45:20.260Z,14.86
2022-10-19T07:46:30.604Z,15.17
2022-10-19T07:47:35.079Z,15.30
2022-10-19T07:48:38.661Z,15.09
2022-10-19T07:49:42.153Z,15.15
2022-10-19T07:50:47.552Z,15.24
2022-10-19T07:51:51.887Z,15.43
2022-10-19T07:52:55.396Z,15.62
2022-10-19T07:53:59.672Z,15.48
2022-10-19T07:55:04.179Z,15.24
2022-10-19T07:56:09.662Z,15.21
2022-10-19T07:57:13.061Z,15.11
2022-10-19T07:58:15.415Z,15.07
2022-10-19T07:59:18.924Z,15.16
2022-10-19T08:00:22.463Z,15.10
2022-10-19T08:01:27.717Z,15.11
2022-10-19T08:02:39.657Z,14.97
2022-10-19T08:04:59.790Z,15.03
2022-10-19T08:05:47.262Z,15.08
2022-10-19T08:06:49.517Z,15.28
2022-10-19T08:07:54.945Z,15.01
2022-10-19T08:08:58.197Z,14.95
2022-10-19T08:10:01.919Z,14.93
2022-10-19T08:11:08.348Z,15.22
2022-10-19T08:12:15.182Z,15.23
2022-10-19T08:13:18.076Z,15.25
2022-10-19T08:14:21.247Z,15.30
2022-10-19T08:15:26.419Z,15.41
2022-10-19T08:16:39.093Z,15.76
2022-10-19T08:17:42.423Z,15.76
2022-10-19T08:18:45.837Z,16.05
2022-10-19T08:19:50.473Z,15.74
2022-10-19T08:20:53.675Z,15.71
2022-10-19T08:21:57.080Z,15.75
2022-10-19T08:22:59.777Z,15.91
2022-10-19T08:24:05.867Z,15.87
2022-10-19T08:25:08.431Z,16.05
2022-10-19T08:26:12.667Z,15.59
2022-10-19T08:27:17.217Z,15.76
2022-10-19T08:28:21.035Z,15.69
2022-10-19T08:29:25.601Z,15.39
2022-10-19T08:30:28.350Z,15.28
2022-10-19T08:31:31.747Z,15.22
2022-10-19T08:32:34.831Z,15.70
2022-10-19T08:33:40.857Z,15.57
2022-10-19T08:34:43.208Z,15.66
2022-10-19T08:35:46.394Z,15.59
2022-10-19T08:36:52.426Z,15.66
2022-10-19T08:37:58.540Z,15.37
2022-10-19T08:39:02.665Z,15.33
2022-10-19T08:40:09.338Z,15.51
2022-10-19T08:41:20.217Z,15.61
2022-10-19T08:42:28.323Z,15.83
2022-10-19T08:43:33.815Z,15.65
2022-10-19T08:44:39.722Z,15.58
2022-10-19T08:45:43.845Z,15.60
2022-10-19T08:46:53.102Z,15.48
2022-10-19T08:47:57.641Z,15.72
2022-10-19T08:49:01.459Z,15.82
2022-10-19T08:50:26.689Z,15.91
2022-10-19T08:51:30.833Z,15.94
2022-10-19T08:52:36.321Z,16.01
2022-10-19T08:53:43.169Z,15.94
2022-10-19T08:54:48.453Z,15.82
2022-10-19T08:56:12.403Z,15.91
2022-10-19T08:57:20.253Z,15.82
2022-10-19T08:58:34.164Z,15.89
2022-10-19T08:59:42.368Z,15.82
2022-10-19T09:00:49.310Z,15.78
2022-10-19T09:01:54.590Z,15.65
2022-10-19T09:02:59.046Z,15.36
2022-10-19T09:04:04.630Z,15.38
2022-10-19T09:05:13.357Z,15.40
2022-10-19T09:06:35.568Z,15.69
2022-10-19T09:07:40.251Z,15.80
2022-10-19T09:08:43.885Z,15.99
2022-10-19T09:09:49.169Z,15.86
2022-10-19T09:10:54.394Z,15.87
2022-10-19T09:12:00.441Z,15.78
2022-10-19T09:13:04.643Z,16.01
2022-10-19T09:14:26.107Z,16.13
2022-10-19T09:15:31.809Z,16.30
2022-10-19T09:16:37.184Z,16.22
2022-10-19T09:17:40.282Z,16.21
2022-10-19T09:18:44.455Z,16.24
2022-10-19T09:19:48.054Z,16.18
2022-10-19T09:20:54.139Z,15.95
2022-10-19T09:21:58.584Z,15.78
2022-10-19T09:23:13.046Z,15.78
2022-10-19T09:24:29.307Z,15.80
2022-10-19T09:25:35.317Z,15.90
2022-10-19T09:26:40.271Z,15.91
2022-10-19T09:27:48.052Z,15.95
2022-10-19T09:29:00.453Z,16.29
2022-10-19T09:30:05.515Z,16.41
2022-10-19T09:31:10.572Z,16.30
2022-10-19T09:32:16.298Z,16.45
2022-10-19T09:33:22.269Z,16.48
2022-10-19T09:34:30.267Z,16.40
2022-10-19T09:35:37.256Z,16.33
2022-10-19T09:36:56.619Z,16.44
2022-10-19T09:37:48.540Z,16.24
2022-10-19T09:38:54.250Z,16.15
2022-10-19T09:39:57.739Z,16.24
2022-10-19T09:41:20.390Z,15.98
2022-10-19T09:42:25.337Z,16.22
2022-10-19T09:43:29.052Z,16.14
2022-10-19T09:44:33.077Z,16.13
2022-10-19T09:45:43.151Z,16.03
2022-10-19T09:46:50.323Z,15.88
2022-10-19T09:47:54.141Z,15.68
2022-10-19T09:49:00.997Z,15.45
2022-10-19T09:50:10.346Z,15.73
2022-10-19T09:51:15.405Z,16.11
2022-10-19T09:52:26.222Z,16.23
2022-10-19T09:53:30.259Z,16.24
2022-10-19T09:54:35.817Z,16.36
2022-10-19T09:55:41.012Z,16.66
2022-10-19T09:56:48.804Z,16.53
2022-10-19T09:57:55.025Z,16.56
2022-10-19T09:58:59.575Z,16.38
2022-10-19T10:00:05.784Z,16.07
2022-10-19T10:01:11.600Z,15.96
2022-10-19T10:02:16.800Z,15.94
2022-10-19T10:03:26.025Z,16.09
2022-10-19T10:04:31.106Z,16.00
2022-10-19T10:05:36.222Z,16.12
2022-10-19T10:06:40.194Z,16.06
2022-10-19T10:07:43.700Z,15.97
2022-10-19T10:08:47.570Z,15.84
2022-10-19T10:09:52.172Z,15.72
2022-10-19T10:11:10.418Z,15.72
2022-10-19T10:12:13.909Z,15.88
2022-10-19T10:13:17.633Z,15.91
2022-10-19T10:14:22.833Z,16.03
2022-10-19T10:15:26.827Z,16.16
2022-10-19T10:16:32.210Z,16.34
2022-10-19T10:17:37.506Z,16.40
2022-10-19T10:18:43.294Z,16.51
2022-10-19T10:19:51.917Z,16.81
2022-10-19T10:20:59.812Z,16.86
2022-10-19T10:22:02.896Z,16.64
2022-10-19T10:23:10.730Z,16.70
2022-10-19T10:24:18.406Z,16.38
2022-10-19T10:25:21.988Z,16.47
2022-10-19T10:26:26.362Z,16.32
2022-10-19T10:27:31.550Z,16.38
2022-10-19T10:28:36.982Z,16.16
2022-10-19T10:29:40.395Z,16.25
2022-10-19T10:30:46.517Z,16.20
2022-10-19T10:31:57.765Z,16.34
2022-10-19T10:33:09.352Z,16.53
2022-10-19T10:34:22.585Z,16.70
2022-10-19T10:35:21.524Z,16.77
2022-10-19T10:36:26.909Z,16.66
2022-10-19T10:37:31.433Z,16.57
2022-10-19T10:38:37.824Z,16.74
2022-10-19T10:39:43.262Z,16.85
2022-10-19T10:40:53.765Z,16.72
2022-10-19T10:41:58.873Z,16.78
2022-10-19T10:43:05.599Z,16.72
2022-10-19T10:44:10.795Z,16.67
2022-10-19T10:45:18.012Z,16.73
2022-10-19T10:46:30.810Z,16.87
2022-10-19T10:47:34.446Z,16.96
2022-10-19T10:48:39.318Z,17.16
2022-10-19T10:49:46.946Z,17.38
2022-10-19T10:50:52.520Z,16.69
2022-10-19T10:51:57.644Z,16.70
2022-10-19T10:53:05.753Z,16.74
2022-10-19T10:54:17.869Z,16.68
2022-10-19T10:55:21.956Z,16.77
2022-10-19T10:56:29.031Z,17.14
2022-10-19T10:57:36.483Z,17.07
2022-10-19T10:58:51.166Z,17.11
2022-10-19T10:59:56.331Z,17.14
2022-10-19T11:01:07.672Z,17.42
2022-10-19T11:02:17.058Z,17.33
2022-10-19T11:03:26.067Z,17.19
2022-10-19T11:04:31.462Z,17.18
2022-10-19T11:05:39.561Z,17.13
2022-10-19T11:06:45.611Z,17.11
2022-10-19T11:07:50.959Z,16.96
2022-10-19T11:09:00.479Z,16.83
2022-10-19T11:10:23.662Z,16.74
2022-10-19T11:11:30.986Z,16.76
2022-10-19T11:12:36.312Z,16.90
2022-10-19T11:13:47.328Z,16.80
2022-10-19T11:14:59.710Z,16.60
2022-10-19T11:16:06.881Z,16.72
2022-10-19T11:17:12.475Z,16.75
2022-10-19T11:18:19.531Z,16.81
2022-10-19T11:19:28.812Z,16.55
2022-10-19T11:20:33.056Z,16.52
2022-10-19T11:21:44.077Z,16.21
2022-10-19T11:22:51.935Z,16.13
2022-10-19T11:24:05.989Z,15.94
2022-10-19T11:25:19.300Z,15.86
2022-10-19T11:26:25.323Z,15.81
2022-10-19T11:27:45.950Z,16.03
2022-10-19T11:29:07.732Z,16.11
2022-10-19T11:30:13.037Z,16.19
2022-10-19T11:31:22.898Z,16.34
2022-10-19T11:32:35.612Z,16.42
2022-10-19T11:33:40.970Z,16.38
2022-10-19T11:34:45.634Z,16.27
2022-10-19T11:35:52.681Z,16.46
2022-10-19T11:37:09.138Z,16.85
2022-10-19T11:38:31.662Z,17.11
2022-10-19T11:39:48.745Z,17.06
2022-10-19T11:41:18.555Z,17.08
2022-10-19T11:42:11.735Z,17.13
2022-10-19T11:43:16.901Z,16.87
2022-10-19T11:44:23.867Z,16.62
2022-10-19T11:45:28.923Z,16.75
2022-10-19T11:46:44.775Z,16.70
2022-10-19T11:47:56.208Z,16.83
2022-10-19T11:49:17.678Z,16.43
2022-10-19T11:50:22.228Z,16.48
2022-10-19T11:51:37.771Z,16.48
2022-10-19T11:52:46.774Z,16.42
2022-10-19T11:53:51.845Z,16.47
2022-10-19T11:54:57.126Z,16.13
2022-10-19T11:56:05.241Z,15.86
2022-10-19T11:57:16.995Z,16.10
2022-10-19T11:58:22.276Z,16.48
2022-10-19T11:59:31.619Z,16.65
2022-10-19T12:00:39.967Z,16.57
2022-10-19T12:01:44.924Z,16.81
2022-10-19T12:02:55.868Z,16.92
2022-10-19T12:04:09.870Z,16.96
2022-10-19T12:05:26.642Z,17.16
2022-10-19T12:06:34.647Z,17.31
2022-10-19T12:07:39.901Z,17.38
2022-10-19T12:09:03.077Z,17.68
2022-10-19T12:10:24.975Z,17.51
2022-10-19T12:11:35.877Z,17.68
2022-10-19T12:12:46.266Z,17.59
2022-10-19T12:13:53.457Z,17.70
2022-10-19T12:14:59.645Z,17.41
2022-10-19T12:16:03.901Z,17.40
2022-10-19T12:17:14.914Z,17.46
2022-10-19T12:18:26.676Z,17.29
2022-10-19T12:19:31.956Z,17.22
2022-10-19T12:20:37.121Z,17.12
2022-10-19T12:21:40.974Z,16.83
2022-10-19T12:22:44.770Z,16.70
2022-10-19T12:23:49.516Z,16.71
2022-10-19T12:24:56.200Z,16.46
2022-10-19T12:26:01.226Z,16.43
2022-10-19T12:27:05.152Z,16.49
2022-10-19T12:28:09.395Z,16.63
2022-10-19T12:29:17.627Z,16.74
2022-10-19T12:30:22.781Z,16.74
2022-10-19T12:31:26.908Z,16.83
2022-10-19T12:32:34.383Z,16.71
2022-10-19T12:33:41.756Z,16.76
2022-10-19T12:34:45.874Z,16.75
2022-10-19T12:35:50.804Z,16.98
2022-10-19T12:36:55.818Z,17.19
2022-10-19T12:38:00.471Z,17.30
2022-10-19T12:39:21.734Z,17.26
2022-10-19T12:40:42.370Z,17.29
2022-10-19T12:41:59.453Z,17.01
2022-10-19T12:43:08.795Z,17.07
2022-10-19T12:44:14.858Z,17.01
2022-10-19T12:45:20.087Z,17.07
2022-10-19T12:46:30.447Z,16.91
2022-10-19T12:47:34.179Z,16.84
2022-10-19T18:59:20.135Z,11.93
2022-10-19T19:00:23.096Z,12.06
2022-10-19T19:01:28.499Z,12.12
2022-10-19T19:02:42.216Z,12.04
2022-10-19T19:03:37.711Z,12.02
2022-10-19T19:04:41.292Z,11.93
2022-10-19T19:05:44.798Z,11.92
2022-10-19T19:06:49.028Z,11.96
2022-10-19T19:07:52.215Z,12.12
2022-10-19T19:08:58.603Z,12.03
2022-10-19T19:10:01.210Z,11.94
2022-10-19T19:11:17.469Z,12.01
2022-10-19T19:12:22.122Z,11.97
2022-10-19T19:13:27.231Z,11.77
2022-10-19T19:14:31.980Z,11.68
2022-10-19T19:15:35.458Z,11.57
2022-10-19T19:16:39.159Z,11.57
2022-10-19T19:17:43.442Z,11.65
2022-10-19T19:18:46.080Z,11.65
2022-10-19T19:19:52.407Z,11.50
2022-10-19T19:20:55.805Z,11.42
2022-10-19T19:22:00.038Z,11.26
2022-10-19T19:23:04.786Z,11.33
2022-10-19T19:24:10.007Z,11.19
2022-10-19T19:25:14.510Z,11.05
2022-10-19T19:26:18.236Z,11.06
2022-10-19T19:27:31.433Z,11.17
2022-10-19T19:28:40.670Z,11.22
2022-10-19T19:29:42.526Z,11.24
2022-10-19T19:30:46.671Z,11.22
2022-10-19T19:31:48.909Z,11.39
2022-10-19T19:32:51.590Z,11.49
2022-10-19T19:33:55.084Z,11.52
2022-10-19T19:34:58.692Z,11.51
2022-10-19T19:36:06.173Z,11.62
2022-10-19T19:37:11.133Z,11.69
2022-10-19T19:38:17.055Z,11.60
2022-10-19T19:39:21.072Z,11.66
2022-10-19T19:40:24.714Z,11.69
2022-10-19T19:41:30.456Z,11.71
2022-10-19T19:42:34.728Z,11.75
2022-10-19T19:43:39.072Z,11.61
2022-10-19T19:44:42.574Z,11.34
2022-10-19T19:45:47.859Z,11.26
2022-10-19T19:46:51.462Z,11.30
2022-10-19T19:47:54.969Z,11.22
2022-10-19T19:49:04.039Z,11.32
2022-10-19T19:50:09.288Z,11.18
2022-10-19T19:51:14.850Z,11.17
2022-10-19T19:52:18.081Z,11.18
2022-10-19T19:53:21.251Z,11.20
2022-10-19T19:54:24.343Z,11.25
2022-10-19T19:55:28.277Z,11.12
2022-10-19T19:56:32.445Z,11.08
2022-10-19T19:57:35.962Z,11.31
2022-10-19T19:58:40.671Z,11.37
2022-10-19T19:59:45.474Z,11.12
2022-10-19T20:00:47.879Z,11.16
2022-10-19T20:01:50.928Z,10.96
2022-10-19T20:02:55.203Z,11.02
2022-10-19T20:04:00.645Z,11.08
2022-10-19T20:05:04.824Z,11.28
2022-10-19T20:06:09.381Z,11.14
2022-10-19T20:07:11.845Z,11.06
2022-10-19T20:08:17.331Z,11.02
2022-10-19T20:09:20.828Z,11.14
2022-10-19T20:10:24.661Z,11.14
2022-10-19T20:11:30.150Z,11.01
2022-10-19T20:12:33.547Z,10.96
2022-10-19T20:13:37.583Z,11.11
2022-10-19T20:14:40.903Z,11.03
2022-10-19T20:15:44.822Z,11.08
2022-10-19T20:16:48.407Z,11.03
2022-10-19T20:17:52.741Z,10.78
2022-10-19T20:18:57.608Z,10.75
2022-10-19T20:20:00.268Z,11.00
2022-10-19T20:21:06.067Z,11.10
2022-10-19T20:22:09.510Z,11.05
2022-10-19T20:23:16.781Z,11.01